Time;durP1;ratioP1;P1;durP2;ratioP2;P2;SDS_P1;SDS_P2;PMS_P1;PMS_P2;Temp;Humidity;BMP_temperature;BMP_pressure;BME280_temperature;BME280_humidity;BME280_pressure;Samples;Min_cycle;Max_cycle;Signal;HPM_P1;HPM_P2
2022/10/17 00:00:01;;;;;;;25.90;16.65;;;;;;;11.13;81.42;101208.62;4480662;31;33402;-73
2022/10/17 00:02:31;;;;;;;22.37;15.60;;;;;;;11.31;80.37;101214.13;4471145;31;33800;-73
2022/10/17 00:04:58;;;;;;;23.08;16.25;;;;;;;11.37;79.54;101219.69;4489911;31;34049;-73
2022/10/17 00:07:25;;;;;;;22.37;15.30;;;;;;;11.55;78.47;101215.69;4480122;31;33046;-73
2022/10/17 00:09:53;;;;;;;21.40;13.45;;;;;;;11.81;77.33;101211.22;4475680;31;33382;-72
2022/10/17 00:12:21;;;;;;;24.60;15.18;;;;;;;11.64;77.79;101209.28;4474754;31;33704;-73
2022/10/17 00:14:49;;;;;;;22.98;14.80;;;;;;;11.06;80.48;101209.03;4484988;31;34408;-73
2022/10/17 00:17:16;;;;;;;21.40;15.02;;;;;;;10.87;81.61;101204.31;4481962;31;34623;-73
2022/10/17 00:19:44;;;;;;;25.27;14.70;;;;;;;10.82;83.84;101214.41;4478245;31;33576;-72
2022/10/17 00:22:12;;;;;;;22.05;14.02;;;;;;;11.67;79.70;101214.66;4487612;31;33658;-72
2022/10/17 00:24:39;;;;;;;18.48;12.52;;;;;;;12.41;75.17;101208.81;4493090;31;34586;-73
2022/10/17 00:27:07;;;;;;;18.92;12.10;;;;;;;12.34;74.73;101203.25;4480845;31;33588;-73
2022/10/17 00:29:34;;;;;;;17.95;11.95;;;;;;;12.17;74.43;101214.34;4486909;31;33561;-72
2022/10/17 00:32:02;;;;;;;18.08;11.05;;;;;;;11.60;76.06;101219.44;4474941;31;33504;-72
2022/10/17 00:34:30;;;;;;;15.60;10.55;;;;;;;12.08;74.17;101218.97;4475535;31;33619;-73
2022/10/17 00:36:57;;;;;;;16.70;10.18;;;;;;;12.37;72.91;101211.22;4481230;31;33609;-73
2022/10/17 00:39:24;;;;;;;17.73;10.55;;;;;;;12.26;73.17;101220.06;4472343;32;33327;-72
2022/10/17 00:41:52;;;;;;;17.58;9.80;;;;;;;11.90;74.37;101224.81;4478924;31;33994;-73
2022/10/17 00:44:29;;;;;;;17.40;10.48;;;;;;;11.67;75.50;101225.06;4471983;31;33049;-72
2022/10/17 00:46:58;;;;;;;17.87;9.43;;;;;;;11.30;77.35;101220.09;4473158;31;33842;-74
2022/10/17 00:49:28;;;;;;;15.13;8.55;;;;;;;11.35;77.28;101221.28;4478048;31;33321;-73
2022/10/17 00:51:59;;;;;;;18.95;10.02;;;;;;;11.45;76.86;101212.41;4471269;31;33950;-72
2022/10/17 00:54:32;;;;;;;16.17;9.57;;;;;;;11.46;76.90;101219.41;4473418;31;33755;-73
2022/10/17 00:57:00;;;;;;;16.95;10.30;;;;;;;11.38;77.49;101216.31;4474434;31;33558;-72
2022/10/17 00:59:29;;;;;;;16.85;10.65;;;;;;;11.52;77.43;101219.78;4468891;31;34044;-73
2022/10/17 01:02:00;;;;;;;19.52;11.65;;;;;;;11.59;76.54;101216.78;4469887;31;34753;-73
2022/10/17 01:04:27;;;;;;;15.18;10.77;;;;;;;11.16;77.56;101208.81;4465138;32;34678;-73
2022/10/17 01:06:55;;;;;;;17.35;11.48;;;;;;;11.21;77.79;101208.31;4478130;31;34478;-73
2022/10/17 01:09:23;;;;;;;20.80;13.95;;;;;;;10.72;79.74;101210.31;4479842;31;32822;-73
2022/10/17 01:12:23;;;;;;;18.92;13.80;;;;;;;10.53;80.25;101208.16;4476382;31;34048;-73
2022/10/17 01:15:12;;;;;;;21.27;14.18;;;;;;;10.15;82.04;101218.47;4491784;31;33935;-73
2022/10/17 01:18:34;;;;;;;21.20;14.10;;;;;;;10.16;82.92;101216.00;4484830;31;33181;-73
2022/10/17 01:21:08;;;;;;;21.60;13.62;;;;;;;10.44;81.38;101212.72;4434022;32;33071;-73
2022/10/17 01:23:48;;;;;;;16.40;11.87;;;;;;;10.64;80.42;101214.06;4471726;31;33639;-73
2022/10/17 01:26:30;;;;;;;17.75;11.90;;;;;;;10.76;79.75;101216.59;4478806;31;34484;-73
2022/10/17 01:29:20;;;;;;;18.20;12.55;;;;;;;10.97;78.63;101217.09;4472369;31;34412;-73
2022/10/17 01:32:01;;;;;;;16.37;11.05;;;;;;;11.16;77.90;101214.94;4478119;31;34018;-72
2022/10/17 01:34:50;;;;;;;16.55;9.88;;;;;;;11.45;77.16;101205.50;4471775;32;33818;-73
2022/10/17 01:37:27;;;;;;;15.15;10.23;;;;;;;11.65;76.02;101200.66;4478605;31;34674;-72
2022/10/17 01:40:04;;;;;;;16.65;10.43;;;;;;;11.62;76.21;101203.97;4480492;31;33582;-72
2022/10/17 01:42:48;;;;;;;14.77;9.82;;;;;;;11.37;76.41;101217.09;4492608;31;33433;-72
2022/10/17 01:45:30;;;;;;;15.70;10.45;;;;;;;11.28;76.20;101209.63;4479738;32;33636;-72
2022/10/17 01:48:04;;;;;;;17.75;10.23;;;;;;;10.71;78.02;101203.31;4470200;31;34595;-73
2022/10/17 01:50:35;;;;;;;13.23;9.50;;;;;;;10.85;77.42;101205.91;4488188;31;34365;-73
2022/10/17 01:53:15;;;;;;;15.60;9.82;;;;;;;10.67;78.40;101211.69;4473525;32;32478;-73
2022/10/17 01:55:45;;;;;;;14.15;10.00;;;;;;;10.56;79.80;101212.66;4487902;31;33591;-73
2022/10/17 01:58:17;;;;;;;16.50;9.38;;;;;;;10.55;79.76;101216.06;4487111;31;33947;-72
2022/10/17 02:00:46;;;;;;;16.05;9.55;;;;;;;10.70;79.30;101219.66;4495416;31;33631;-73
2022/10/17 02:03:16;;;;;;;15.13;9.80;;;;;;;10.59;79.82;101212.87;4477274;32;32313;-73
2022/10/17 02:05:44;;;;;;;16.75;10.10;;;;;;;10.72;79.18;101214.56;4476561;31;32957;-72
2022/10/17 02:08:12;;;;;;;16.20;10.70;;;;;;;10.57;79.72;101219.66;4498107;31;33714;-72
2022/10/17 02:10:46;;;;;;;16.48;9.93;;;;;;;10.78;78.56;101218.47;4482007;31;33757;-73
2022/10/17 02:13:56;;;;;;;16.27;10.55;;;;;;;10.54;79.42;101219.41;4468250;32;33343;-73
2022/10/17 02:16:23;;;;;;;14.98;10.40;;;;;;;10.17;81.25;101216.87;4480260;31;33424;-72
2022/10/17 02:19:23;;;;;;;18.77;11.02;;;;;;;9.85;81.75;101223.31;4488223;31;33949;-72
2022/10/17 02:22:06;;;;;;;18.12;12.05;;;;;;;9.63;82.81;101221.78;4484698;31;34533;-73
2022/10/17 02:24:49;;;;;;;17.85;12.93;;;;;;;9.10;86.16;101218.81;4478087;32;33573;-72
2022/10/17 02:27:29;;;;;;;21.87;12.93;;;;;;;9.00;87.14;101225.00;4470385;32;34636;-72
2022/10/17 02:30:20;;;;;;;19.73;13.20;;;;;;;9.34;86.15;101219.69;4469567;32;33949;-72
2022/10/17 02:33:12;;;;;;;22.08;13.20;;;;;;;8.87;87.99;101226.56;4473765;31;33740;-73
2022/10/17 02:35:43;;;;;;;24.30;14.70;;;;;;;8.87;88.56;101230.03;4477262;31;33187;-72
2022/10/17 02:38:11;;;;;;;21.08;14.02;;;;;;;9.01;88.36;101221.59;4485656;31;33245;-73
2022/10/17 02:40:39;;;;;;;19.90;13.48;;;;;;;9.06;88.44;101224.56;4493735;31;33763;-72
2022/10/17 02:43:07;;;;;;;18.80;13.10;;;;;;;9.42;86.22;101235.75;4474880;31;33777;-72
2022/10/17 02:45:36;;;;;;;18.87;12.32;;;;;;;10.03;83.55;101234.94;4483607;31;33406;-73
2022/10/17 02:48:07;;;;;;;18.62;12.57;;;;;;;10.49;80.74;101225.97;4470547;31;33938;-71
2022/10/17 02:50:42;;;;;;;16.15;11.68;;;;;;;10.27;80.67;101232.25;4477665;31;33727;-72
2022/10/17 02:53:11;;;;;;;;;;;;;;;10.33;80.49;101234.41;4476930;31;33908;-72
2022/10/17 02:55:49;;;;;;;19.17;12.10;;;;;;;10.34;80.18;101237.09;4481134;31;33119;-72
2022/10/17 02:58:24;;;;;;;17.48;11.05;;;;;;;10.29;80.27;101243.59;4475249;31;34756;-73
2022/10/17 03:00:51;;;;;;;;;;;;;;;10.26;79.69;101242.50;4474512;32;34061;-73
2022/10/17 03:03:25;;;;;;;15.32;10.70;;;;;;;10.22;79.26;101241.41;4475499;31;33949;-73
2022/10/17 03:05:52;;;;;;;19.65;11.40;;;;;;;10.02;80.21;101255.53;4476424;31;34095;-73
2022/10/17 03:08:22;;;;;;;14.80;10.02;;;;;;;10.16;79.50;101249.66;4475706;31;34721;-73
2022/10/17 03:10:49;;;;;;;14.80;10.38;;;;;;;10.33;79.22;101245.66;4462928;32;34639;-73
2022/10/17 03:13:17;;;;;;;13.62;10.50;;;;;;;10.28;79.61;101247.00;4474955;32;33185;-73
2022/10/17 03:15:45;;;;;;;18.77;11.50;;;;;;;9.99;81.40;101238.13;4479873;31;33433;-73
2022/10/17 03:18:13;;;;;;;16.75;11.43;;;;;;;10.06;80.92;101244.59;4477214;31;33981;-72
2022/10/17 03:20:40;;;;;;;16.58;10.95;;;;;;;10.27;79.56;101255.56;4479009;31;34696;-73
2022/10/17 03:23:08;;;;;;;15.57;11.23;;;;;;;10.33;79.66;101253.41;4481807;31;34197;-72
2022/10/17 03:25:35;;;;;;;15.15;9.50;;;;;;;10.84;77.39;101250.81;4481870;31;33485;-73
2022/10/17 03:28:05;;;;;;;14.90;9.32;;;;;;;11.05;76.11;101254.81;4475866;31;32589;-73
2022/10/17 03:30:33;;;;;;;14.85;9.70;;;;;;;11.35;74.11;101255.00;4473245;32;33985;-72
2022/10/17 03:33:00;;;;;;;17.30;9.48;;;;;;;10.87;75.32;101258.75;4475220;31;32328;-73
2022/10/17 03:35:28;;;;;;;13.48;9.18;;;;;;;10.86;74.46;101262.16;4476217;31;33464;-72
2022/10/17 03:37:55;;;;;;;17.40;9.50;;;;;;;10.45;75.57;101265.41;4474899;31;34232;-73
2022/10/17 03:40:23;;;;;;;18.52;10.15;;;;;;;10.43;75.73;101268.81;4473815;31;34053;-72
2022/10/17 03:42:52;;;;;;;14.38;9.20;;;;;;;10.31;76.00;101277.44;4472222;31;33365;-73
2022/10/17 03:45:19;;;;;;;16.20;9.45;;;;;;;10.56;75.36;101283.50;4471622;31;33566;-72
2022/10/17 03:47:47;;;;;;;17.70;9.43;;;;;;;10.21;76.28;101281.03;4471427;31;34556;-73
2022/10/17 03:50:15;;;;;;;14.20;8.77;;;;;;;10.57;74.89;101284.41;4476741;31;34572;-72
2022/10/17 03:52:46;;;;;;;14.40;9.15;;;;;;;10.39;75.46;101287.53;4474565;31;33835;-73
2022/10/17 03:55:13;;;;;;;13.90;8.27;;;;;;;9.97;77.37;101286.28;4485419;31;31973;-74
2022/10/17 03:57:42;;;;;;;17.62;9.77;;;;;;;10.19;76.17;101288.69;4485407;31;32990;-72
2022/10/17 04:00:12;;;;;;;16.60;9.02;;;;;;;10.02;77.49;101292.72;4470533;32;33685;-73
2022/10/17 04:02:40;;;;;;;16.60;10.88;;;;;;;9.92;78.29;101285.06;4493472;31;33654;-73
2022/10/17 04:05:08;;;;;;;18.62;11.90;;;;;;;10.12;77.72;101290.75;4490954;31;33536;-72
2022/10/17 04:07:36;;;;;;;20.25;11.50;;;;;;;10.06;78.03;101285.13;4477054;31;34679;-73
2022/10/17 04:10:04;;;;;;;15.82;10.30;;;;;;;10.55;76.33;101293.78;4491746;31;34701;-73
2022/10/17 04:12:32;;;;;;;17.92;10.35;;;;;;;10.71;75.82;101295.72;4488456;31;32484;-73
2022/10/17 04:14:59;;;;;;;13.60;9.50;;;;;;;10.66;76.07;101297.97;4479039;32;32928;-72
2022/10/17 04:17:29;;;;;;;17.70;9.40;;;;;;;10.37;76.87;101293.38;4479749;32;33811;-72
2022/10/17 04:20:05;;;;;;;14.15;9.98;;;;;;;10.81;74.85;101288.66;4479036;32;33873;-73
2022/10/17 04:22:33;;;;;;;15.23;9.70;;;;;;;10.84;74.89;101297.47;4489357;31;33867;-73
2022/10/17 04:25:01;;;;;;;14.43;9.40;;;;;;;10.73;74.81;101300.19;4491927;31;33927;-73
2022/10/17 04:27:30;;;;;;;14.63;9.35;;;;;;;11.03;73.65;101300.50;4486552;31;34584;-72
2022/10/17 04:29:57;;;;;;;15.98;9.88;;;;;;;11.46;71.02;101311.09;4474816;31;34504;-73
2022/10/17 04:32:24;;;;;;;15.02;8.85;;;;;;;11.28;71.61;101313.41;4474321;31;33832;-72
2022/10/17 04:34:53;;;;;;;15.45;9.35;;;;;;;10.59;73.77;101321.69;4475021;32;35116;-72
2022/10/17 04:37:20;;;;;;;15.85;10.48;;;;;;;9.96;76.45;101315.53;4476985;31;33991;-72
2022/10/17 04:39:48;;;;;;;18.95;10.48;;;;;;;9.12;80.91;101307.72;4485820;31;33691;-72
2022/10/17 04:42:16;;;;;;;17.25;10.82;;;;;;;8.95;83.04;101323.66;4488396;31;33673;-72
2022/10/17 04:44:44;;;;;;;18.12;11.00;;;;;;;8.90;83.14;101324.97;4478772;32;33461;-73
2022/10/17 04:47:12;;;;;;;19.50;11.57;;;;;;;9.15;81.84;101317.38;4485734;31;34562;-72
2022/10/17 04:49:41;;;;;;;19.45;11.48;;;;;;;9.52;80.41;101331.38;4484151;31;33880;-72
2022/10/17 04:52:08;;;;;;;15.52;10.57;;;;;;;10.05;77.90;101317.91;4480845;31;33875;-73
2022/10/17 04:54:36;;;;;;;19.10;10.90;;;;;;;10.45;76.27;101323.34;4476750;31;32979;-72
2022/10/17 04:57:04;;;;;;;16.20;10.70;;;;;;;10.38;76.46;101322.00;4474708;31;34021;-73
2022/10/17 04:59:32;;;;;;;22.27;11.55;;;;;;;10.62;75.45;101324.47;4483276;31;34498;-72
2022/10/17 05:02:03;;;;;;;21.90;12.25;;;;;;;11.12;73.34;101327.00;4473117;31;33129;-73
2022/10/17 05:04:32;;;;;;;22.13;11.35;;;;;;;11.14;71.91;101325.41;4488002;31;33450;-73
2022/10/17 05:07:00;;;;;;;18.27;11.02;;;;;;;11.23;70.98;101329.44;4474832;31;33733;-73
2022/10/17 05:09:28;;;;;;;17.05;10.15;;;;;;;10.82;72.66;101331.94;4485714;31;34548;-72
2022/10/17 05:11:57;;;;;;;16.50;9.05;;;;;;;10.98;72.35;101333.88;4481544;31;33855;-73
2022/10/17 05:14:24;;;;;;;15.95;9.85;;;;;;;10.57;73.54;101344.91;4459487;31;34240;-72
2022/10/17 05:16:52;;;;;;;19.90;10.50;;;;;;;10.12;75.90;101332.16;4485165;31;33855;-73
2022/10/17 05:19:20;;;;;;;23.73;11.80;;;;;;;9.97;76.88;101340.66;4487780;31;34661;-72
2022/10/17 05:21:48;;;;;;;15.48;10.10;;;;;;;9.97;77.21;101338.06;4488514;31;33977;-72
2022/10/17 05:24:15;;;;;;;17.45;10.93;;;;;;;10.45;75.36;101344.06;4490111;31;33301;-72
2022/10/17 05:26:43;;;;;;;17.05;10.27;;;;;;;10.84;74.33;101354.50;4495420;31;34577;-72
2022/10/17 05:29:11;;;;;;;16.58;9.88;;;;;;;10.85;73.48;101356.28;4490616;31;33704;-72
2022/10/17 05:31:39;;;;;;;15.32;9.88;;;;;;;10.59;74.64;101355.37;4477671;31;33943;-72
2022/10/17 05:34:06;;;;;;;17.85;10.27;;;;;;;10.92;73.46;101361.09;4485256;31;33459;-73
2022/10/17 05:36:39;;;;;;;15.90;9.93;;;;;;;11.49;71.49;101365.81;4487356;31;33560;-73
2022/10/17 05:39:07;;;;;;;14.98;9.57;;;;;;;11.74;69.90;101357.00;4493522;31;33691;-73
2022/10/17 05:41:36;;;;;;;15.52;8.70;;;;;;;11.34;70.81;101365.69;4477162;31;33434;-73
2022/10/17 05:44:04;;;;;;;18.83;9.73;;;;;;;10.96;72.25;101374.34;4467612;31;34122;-72
2022/10/17 05:46:33;;;;;;;15.75;9.25;;;;;;;10.50;74.08;101378.06;4495894;31;34668;-72
2022/10/17 05:49:01;;;;;;;22.08;12.32;;;;;;;10.26;75.22;101375.50;4491869;31;34402;-72
2022/10/17 05:51:46;;;;;;;16.02;10.52;;;;;;;10.32;76.16;101388.03;4484894;31;33544;-73
2022/10/17 05:54:14;;;;;;;21.55;11.52;;;;;;;10.09;77.76;101381.16;4492964;31;34167;-72
2022/10/17 05:56:41;;;;;;;20.20;10.00;;;;;;;10.37;77.10;101397.00;4469812;32;33356;-72
2022/10/17 05:59:09;;;;;;;17.27;11.30;;;;;;;10.36;76.64;101393.50;4487258;31;33655;-72
2022/10/17 06:01:37;;;;;;;14.87;9.65;;;;;;;10.72;75.51;101394.31;4485854;31;34520;-72
2022/10/17 06:04:05;;;;;;;21.45;12.35;;;;;;;11.12;74.27;101399.63;4480847;31;34116;-72
2022/10/17 06:06:35;;;;;;;17.87;10.90;;;;;;;11.35;72.92;101402.87;4492015;31;33952;-73
2022/10/17 06:09:04;;;;;;;19.15;10.68;;;;;;;11.03;74.49;101409.41;4489988;31;34621;-73
2022/10/17 06:11:32;;;;;;;19.98;9.98;;;;;;;11.21;73.81;101415.81;4486789;31;33708;-73
2022/10/17 06:14:00;;;;;;;16.02;9.82;;;;;;;10.99;74.91;101417.72;4492132;31;33455;-73
2022/10/17 06:16:28;;;;;;;18.70;10.73;;;;;;;10.74;76.34;101409.94;4491466;31;33768;-72
2022/10/17 06:18:55;;;;;;;14.93;9.95;;;;;;;10.82;76.45;101414.88;4489405;31;34683;-72
2022/10/17 06:21:25;;;;;;;21.00;10.63;;;;;;;11.36;74.48;101425.47;4481188;31;34375;-72
2022/10/17 06:23:53;;;;;;;18.77;10.32;;;;;;;11.58;73.66;101423.47;4485838;31;33500;-72
2022/10/17 06:26:20;;;;;;;18.08;10.43;;;;;;;11.71;73.37;101419.13;4483791;31;34798;-72
2022/10/17 06:28:48;;;;;;;17.00;11.90;;;;;;;11.43;74.89;101427.66;4482007;31;33839;-73
2022/10/17 06:31:16;;;;;;;20.50;11.02;;;;;;;11.80;73.65;101430.09;4480797;31;33631;-72
2022/10/17 06:33:44;;;;;;;17.33;10.85;;;;;;;11.96;73.27;101432.06;4492567;31;33237;-72
2022/10/17 06:36:13;;;;;;;17.52;10.82;;;;;;;12.07;73.20;101424.94;4499743;31;34744;-74
2022/10/17 06:38:42;;;;;;;20.00;11.00;;;;;;;12.22;72.86;101436.31;4482538;31;34450;-73
2022/10/17 06:41:13;;;;;;;19.87;12.48;;;;;;;12.34;72.97;101431.94;4485589;31;33630;-72
2022/10/17 06:43:44;;;;;;;21.27;13.00;;;;;;;12.41;73.22;101442.72;4490956;31;33399;-73
2022/10/17 06:46:19;;;;;;;19.77;11.98;;;;;;;12.48;73.57;101442.31;4493408;31;33894;-72
2022/10/17 06:48:49;;;;;;;23.38;13.90;;;;;;;12.68;73.39;101452.22;4489818;31;33126;-73
2022/10/17 06:51:17;;;;;;;22.75;13.50;;;;;;;12.64;74.06;101445.06;4478722;31;33788;-73
2022/10/17 06:53:46;;;;;;;23.58;13.32;;;;;;;12.57;74.89;101445.47;4482566;31;33370;-72
2022/10/17 06:56:14;;;;;;;23.60;14.55;;;;;;;12.36;76.14;101448.50;4481709;31;33674;-73
2022/10/17 06:58:43;;;;;;;24.65;13.95;;;;;;;12.39;76.25;101455.59;4483792;31;33852;-72
2022/10/17 07:01:12;;;;;;;25.48;15.10;;;;;;;12.54;76.42;101460.87;4473866;32;34656;-72
2022/10/17 07:03:40;;;;;;;24.35;15.00;;;;;;;12.72;76.12;101462.03;4477412;31;33496;-73
2022/10/17 07:06:10;;;;;;;23.23;13.85;;;;;;;12.67;76.21;101458.25;4473356;32;34631;-73
2022/10/17 07:08:42;;;;;;;22.58;15.32;;;;;;;12.91;75.57;101460.56;4476650;31;32279;-73
2022/10/17 07:11:11;;;;;;;26.90;15.75;;;;;;;12.89;76.08;101470.00;4484852;31;34698;-73
2022/10/17 07:13:39;;;;;;;28.17;15.18;;;;;;;13.17;75.57;101470.87;4480929;31;34473;-74
2022/10/17 07:16:07;;;;;;;22.77;15.25;;;;;;;13.17;76.12;101463.09;4478659;31;33947;-73
2022/10/17 07:18:35;;;;;;;28.95;15.50;;;;;;;13.23;75.50;101462.56;4480309;31;33433;-72
2022/10/17 07:21:02;;;;;;;26.12;15.50;;;;;;;13.42;75.36;101474.97;4488423;31;34673;-73
2022/10/17 07:23:30;;;;;;;24.23;15.05;;;;;;;13.58;74.83;101471.63;4473965;31;31805;-73
2022/10/17 07:26:07;;;;;;;22.48;14.57;;;;;;;14.02;72.93;101470.69;4474613;31;34652;-73
2022/10/17 07:28:38;;;;;;;23.58;14.25;;;;;;;13.81;73.29;101467.75;4479099;31;33984;-73
2022/10/17 07:31:15;;;;;;;23.75;14.80;;;;;;;14.06;72.00;101472.69;4478900;31;34512;-73
2022/10/17 07:33:44;;;;;;;22.92;13.75;;;;;;;14.31;70.94;101468.84;4477406;31;33628;-74
2022/10/17 07:36:17;;;;;;;20.27;13.20;;;;;;;14.22;70.95;101471.84;4483257;31;33810;-73
2022/10/17 07:38:44;;;;;;;21.12;13.73;;;;;;;14.32;70.35;101468.94;4480033;31;34614;-73
2022/10/17 07:41:12;;;;;;;22.20;13.80;;;;;;;14.32;70.46;101465.44;4483578;31;34008;-73
2022/10/17 07:43:48;;;;;;;21.08;13.23;;;;;;;14.49;69.63;101477.69;4475504;31;33238;-73
2022/10/17 07:46:16;;;;;;;21.20;14.18;;;;;;;14.94;67.99;101464.50;4474874;31;33889;-73
2022/10/17 07:48:44;;;;;;;23.02;13.85;;;;;;;14.96;68.31;101478.53;4478254;31;33722;-73
2022/10/17 07:51:11;;;;;;;21.95;13.32;;;;;;;14.97;68.00;101480.34;4485377;31;33947;-73
2022/10/17 07:53:39;;;;;;;20.58;13.80;;;;;;;15.19;67.18;101476.25;4476766;31;33547;-73
2022/10/17 07:56:11;;;;;;;24.85;14.23;;;;;;;15.03;67.11;101482.38;4477400;31;33780;-73
2022/10/17 07:58:39;;;;;;;25.00;13.88;;;;;;;15.52;65.59;101478.00;4483547;31;33733;-73
2022/10/17 08:01:09;;;;;;;19.33;12.32;;;;;;;15.51;65.06;101476.22;4475208;31;34210;-73
2022/10/17 08:03:43;;;;;;;22.55;13.27;;;;;;;15.65;64.51;101478.66;4487632;31;32113;-73
2022/10/17 08:06:11;;;;;;;19.67;12.50;;;;;;;15.76;63.68;101476.59;4478176;31;34302;-72
2022/10/17 08:08:39;;;;;;;23.92;13.45;;;;;;;15.94;63.27;101481.88;4486320;31;33920;-73
2022/10/17 08:11:09;;;;;;;18.85;12.82;;;;;;;15.88;63.51;101488.56;4480287;31;33873;-72
2022/10/17 08:13:37;;;;;;;16.17;10.15;;;;;;;15.96;63.02;101481.13;4477039;31;33306;-73
2022/10/17 08:16:07;;;;;;;17.37;11.85;;;;;;;16.02;65.66;101488.38;4481240;31;33879;-73
2022/10/17 08:18:35;;;;;;;18.37;12.05;;;;;;;16.10;62.48;101490.53;4483771;31;32288;-72
2022/10/17 08:21:07;;;;;;;18.40;11.63;;;;;;;16.29;60.56;101481.88;4480085;31;34422;-73
2022/10/17 08:23:35;;;;;;;19.45;11.63;;;;;;;16.34;60.36;101489.03;4476608;31;34241;-73
2022/10/17 08:26:06;;;;;;;18.25;10.73;;;;;;;16.47;59.96;101488.81;4490606;31;33869;-73
2022/10/17 08:28:35;;;;;;;20.23;11.35;;;;;;;16.50;59.65;101496.81;4479275;31;34403;-72
2022/10/17 08:31:11;;;;;;;19.87;11.32;;;;;;;16.94;58.35;101500.66;4487985;31;34669;-73
2022/10/17 08:33:39;;;;;;;20.90;11.25;;;;;;;16.85;58.11;101489.75;4486766;31;33307;-73
2022/10/17 08:36:08;;;;;;;18.55;10.15;;;;;;;16.97;57.43;101490.31;4489388;31;34072;-73
2022/10/17 08:38:36;;;;;;;21.80;12.07;;;;;;;16.91;57.56;101492.66;4495325;31;34604;-73
2022/10/17 08:41:48;;;;;;;19.05;11.60;;;;;;;17.05;57.24;101494.16;4481016;31;33245;-72
2022/10/17 08:44:45;;;;;;;16.67;11.07;;;;;;;17.08;56.82;101489.09;4465999;31;34033;-73
2022/10/17 08:47:23;;;;;;;16.15;10.82;;;;;;;17.26;56.47;101495.97;4476622;31;35850;-73
2022/10/17 08:49:54;;;;;;;20.10;11.57;;;;;;;17.44;56.20;101494.19;4479617;31;32522;-73
2022/10/17 08:52:36;;;;;;;20.33;12.18;;;;;;;17.80;54.78;101485.22;4477626;31;34086;-72
2022/10/17 08:55:14;;;;;;;18.00;11.45;;;;;;;17.62;54.48;101491.47;4474026;31;33265;-73
2022/10/17 08:57:42;;;;;;;20.02;11.15;;;;;;;17.47;55.90;101499.53;4477327;31;33737;-72
2022/10/17 09:00:20;;;;;;;17.20;11.30;;;;;;;18.16;53.95;101492.88;4484443;31;33719;-72
2022/10/17 09:02:56;;;;;;;18.65;11.75;;;;;;;18.04;54.39;101493.22;4479304;31;34343;-72
2022/10/17 09:05:54;;;;;;;18.67;11.52;;;;;;;18.67;52.49;101494.00;4484293;31;33455;-73
2022/10/17 09:09:02;;;;;;;19.45;11.45;;;;;;;18.42;52.49;101491.28;4471339;31;33973;-73
2022/10/17 09:11:32;;;;;;;17.05;10.93;;;;;;;18.69;52.02;101490.56;4386669;32;33656;-72
2022/10/17 09:14:25;;;;;;;16.02;11.55;;;;;;;18.74;51.73;101481.16;4474633;31;32756;-72
2022/10/17 09:17:07;;;;;;;16.50;9.73;;;;;;;18.65;51.84;101485.19;4478455;31;33394;-73
2022/10/17 09:19:38;;;;;;;18.02;9.77;;;;;;;19.05;51.66;101491.13;4483210;31;33750;-73
2022/10/17 09:22:12;;;;;;;17.67;10.48;;;;;;;19.36;50.35;101482.59;4481025;31;33528;-72
2022/10/17 09:24:47;;;;;;;19.55;10.90;;;;;;;19.32;50.38;101485.97;4486198;31;32629;-72
2022/10/17 09:27:20;;;;;;;;;;;;;;;19.48;49.69;101486.53;4459716;32;34028;-72
2022/10/17 09:29:53;;;;;;;15.55;9.80;;;;;;;20.00;47.83;101483.06;4491934;31;33655;-72
2022/10/17 09:32:23;;;;;;;17.92;8.90;;;;;;;20.23;48.09;101487.34;4471363;31;34377;-73
2022/10/17 09:34:52;;;;;;;14.20;9.18;;;;;;;20.25;47.58;101489.16;4477618;31;34483;-73
2022/10/17 09:37:25;;;;;;;14.75;9.70;;;;;;;20.45;47.27;101480.13;4480236;31;33294;-73
2022/10/17 09:39:52;;;;;;;13.60;8.60;;;;;;;20.74;46.37;101488.06;4474760;31;32391;-73
2022/10/17 09:42:22;;;;;;;18.08;8.77;;;;;;;21.02;44.90;101492.41;4481442;31;34618;-73
2022/10/17 09:44:56;;;;;;;14.18;8.32;;;;;;;21.29;44.97;101486.16;4481974;31;34520;-74
2022/10/17 09:47:40;;;;;;;13.10;8.38;;;;;;;21.17;45.77;101491.94;4470849;32;34132;-72
2022/10/17 09:50:20;;;;;;;13.18;8.32;;;;;;;21.27;44.17;101487.84;4478110;31;33978;-73
2022/10/17 09:52:49;;;;;;;10.82;7.47;;;;;;;22.01;43.78;101482.81;4484624;31;34709;-72
2022/10/17 09:55:21;;;;;;;12.45;7.20;;;;;;;21.87;43.19;101478.94;4487143;31;34010;-73
2022/10/17 09:57:57;;;;;;;15.02;7.65;;;;;;;22.25;41.59;101479.00;4486386;31;33543;-72
2022/10/17 10:00:25;;;;;;;13.98;6.82;;;;;;;22.06;42.74;101470.63;4484791;31;34485;-73
2022/10/17 10:03:14;;;;;;;10.90;6.35;;;;;;;22.54;40.52;101477.03;4475812;31;34505;-72
2022/10/17 10:05:57;;;;;;;8.63;5.50;;;;;;;22.64;39.33;101472.84;4473985;32;34054;-73
2022/10/17 10:08:34;;;;;;;12.57;5.60;;;;;;;22.66;38.87;101476.44;4483075;31;33733;-73
2022/10/17 10:11:07;;;;;;;13.10;5.12;;;;;;;22.80;39.71;101469.69;4478776;31;36243;-73
2022/10/17 10:13:41;;;;;;;9.63;5.82;;;;;;;22.76;40.34;101473.13;4457737;31;33874;-73
2022/10/17 10:16:19;;;;;;;13.20;5.90;;;;;;;23.09;41.41;101472.09;4480160;31;33609;-73
2022/10/17 10:18:48;;;;;;;11.10;5.70;;;;;;;23.45;38.82;101471.00;4477694;31;33224;-75
2022/10/17 10:21:26;;;;;;;10.40;5.65;;;;;;;22.89;39.81;101475.16;4475155;32;34381;-73
2022/10/17 10:24:09;;;;;;;9.50;5.30;;;;;;;23.45;38.72;101463.97;4477903;31;34038;-73
2022/10/17 10:26:43;;;;;;;11.45;5.72;;;;;;;23.40;37.96;101467.37;4481703;31;34576;-74
2022/10/17 10:29:24;;;;;;;10.00;6.18;;;;;;;23.60;36.31;101465.97;4475591;32;34341;-72
2022/10/17 10:31:52;;;;;;;8.23;5.90;;;;;;;23.93;36.07;101462.16;4483931;31;34759;-73
2022/10/17 10:34:25;;;;;;;10.57;5.70;;;;;;;23.43;36.46;101463.06;4480767;31;34630;-73
2022/10/17 10:37:04;;;;;;;8.27;5.47;;;;;;;23.70;36.65;101457.37;4478961;32;34952;-73
2022/10/17 10:39:36;;;;;;;11.05;6.90;;;;;;;23.78;35.27;101460.19;4487798;31;33458;-74
2022/10/17 10:42:06;;;;;;;10.13;5.78;;;;;;;23.92;35.56;101457.75;4495216;31;34519;-73
2022/10/17 10:44:35;;;;;;;10.07;5.53;;;;;;;24.11;36.18;101448.34;4493836;31;33238;-72
2022/10/17 10:47:18;;;;;;;8.25;5.18;;;;;;;24.55;34.95;101460.47;4480244;32;34593;-72
2022/10/17 10:49:46;;;;;;;9.45;5.00;;;;;;;24.56;35.06;101462.28;4492213;31;34398;-74
2022/10/17 10:52:44;;;;;;;9.88;5.90;;;;;;;24.28;35.16;101457.44;4491562;31;34608;-72
2022/10/17 10:55:26;;;;;;;10.93;5.93;;;;;;;24.25;34.23;101459.16;4486233;31;33633;-72
2022/10/17 10:57:57;;;;;;;13.73;7.72;;;;;;;23.73;37.54;101456.50;4488036;31;32728;-74
2022/10/17 11:00:27;;;;;;;10.93;6.15;;;;;;;24.23;36.26;101448.53;4495500;31;33443;-74
2022/10/17 11:02:58;;;;;;;11.27;5.57;;;;;;;24.21;35.54;101450.25;4494016;31;34047;-72
2022/10/17 11:05:50;;;;;;;8.15;5.10;;;;;;;24.75;35.11;101450.16;4496651;31;33833;-73
2022/10/17 11:08:42;;;;;;;11.98;5.25;;;;;;;24.71;35.20;101452.78;4481118;31;34356;-72
2022/10/17 11:11:28;;;;;;;9.60;5.57;;;;;;;25.00;34.54;101454.91;4473038;32;33379;-71
2022/10/17 11:14:18;;;;;;;14.75;6.25;;;;;;;25.09;34.97;101443.50;4475880;32;33780;-72
2022/10/17 11:17:01;;;;;;;12.30;5.68;;;;;;;24.63;35.69;101443.84;4476577;32;33866;-72
2022/10/17 11:19:46;;;;;;;7.57;5.00;;;;;;;25.07;35.33;101435.53;4487463;31;33452;-72
2022/10/17 11:22:25;;;;;;;10.13;4.53;;;;;;;24.51;34.84;101433.97;4489809;31;33140;-73
2022/10/17 11:25:11;;;;;;;10.77;5.20;;;;;;;24.60;35.19;101432.31;4471364;32;33851;-72
2022/10/17 11:27:38;;;;;;;7.18;4.82;;;;;;;24.93;33.87;101438.00;4480078;31;34208;-77
2022/10/17 11:30:08;;;;;;;11.27;4.70;;;;;;;24.93;33.89;101438.00;4480780;31;34857;-77
2022/10/17 11:32:40;;;;;;;8.38;4.57;;;;;;;25.49;33.22;101433.34;4479913;31;33672;-77
2022/10/17 11:35:26;;;;;;;9.18;4.50;;;;;;;25.47;33.41;101429.78;4479444;31;34592;-76
2022/10/17 11:38:11;;;;;;;8.57;4.57;;;;;;;25.77;32.74;101425.59;4477039;31;33715;-77